Flight Track Log - Related Links

Times and Time Zones

All times are in EDT time to prevent confusion due to time zone crossing. See the CPZ5806 flight status page for this flight to view local times or setup timezone preferences in your user account.

Time Position Orientation Groundspeed Altitude Reporting Facility
EDT Latitude Longitude Course Direction KTS MPH feet Rate Location/Type
Sun 04:15:42 PM 44.8897 -93.2469 265° West 156 180 2,000  Level FAA TRACON SMA TRACON (SMA)
Sun 04:16:22 PM 44.8872 -93.2858 265° West 168 193 2,600 1,481 Climbing FAA TRACON SMA TRACON (SMA)
Sun 04:17:03 PM 44.8836 -93.3428 239° Southwest 215 247 4,000 2,925 Climbing FAA TRACON SMA TRACON (SMA)
Sun 04:17:42 PM 44.8608 -93.3956 184° South 256 295 6,500 2,850 Climbing FAA TRACON SMA TRACON (SMA)
Sun 04:18:23 PM 44.8128 -93.3997 177° South 287 330 7,800 2,625 Climbing FAA TRACON SMA TRACON (SMA)
Sun 04:19:02 PM 44.7550 -93.3953 136° Southeast 302 348 10,000 2,250 Climbing FAA TRACON SMA TRACON (SMA)
Sun 04:19:43 PM 44.7097 -93.3331 120° Southeast 351 404 10,800 1,778 Climbing FAA TRACON SMA TRACON (SMA)
Sun 04:20:23 PM 44.6736 -93.2447 120° Southeast 379 436 12,400 2,250 Climbing FAA TRACON SMA TRACON (SMA)
Sun 04:21:03 PM 44.6406 -93.1642 120° Southeast 385 443 13,800 2,250 Climbing FAA TRACON SMA TRACON (SMA)
Sun 04:21:43 PM 44.6033 -93.0725 120° Southeast 392 451 15,400 2,475 Climbing FAA TRACON SMA TRACON (SMA)
Sun 04:22:23 PM 44.5656 -92.9800 120° Southeast 394 453 17,100 2,100 Climbing FAA TRACON SMA TRACON (SMA)
Sun 04:23:03 PM 44.5314 -92.8978 120° Southeast 397 457 18,200 1,875 Climbing FAA TRACON SMA TRACON (SMA)
Sun 04:23:43 PM 44.4922 -92.8036 120° Southeast 404 465 19,600 1,950 Climbing FAA TRACON SMA TRACON (SMA)
Sun 04:24:23 PM 44.4528 -92.7067 120° Southeast 414 476 20,800 1,875 Climbing FAA TRACON SMA TRACON (SMA)
Sun 04:25:03 PM 44.4175 -92.6208 120° Southeast 413 475 22,100 1,875 Climbing FAA TRACON SMA TRACON (SMA)
Sun 04:25:43 PM 44.3778 -92.5242 120° Southeast 414 476 23,300 1,725 Climbing FAA TRACON SMA TRACON (SMA)
Sun 04:26:23 PM 44.3372 -92.4275 120° Southeast 418 481 24,400 1,350 Climbing FAA TRACON SMA TRACON (SMA)
Sun 04:27:03 PM 44.3006 -92.3394 121° Southeast 424 488 25,100 1,111 Climbing FAA TRACON SMA TRACON (SMA)
Sun 04:27:44 PM 44.2581 -92.2397 124° Southeast 432 497 25,900 1,138 Climbing FAA TRACON SMA TRACON (SMA)
Sun 04:28:59 PM 44.1747 -92.0658 122° Southeast 437 503 27,300 1,095 Climbing Minneapolis Center
Sun 04:30:01 PM 44.1086 -91.9167 121° Southeast 445 512 28,400 1,016 Climbing Minneapolis Center
Sun 04:31:03 PM 44.0450 -91.7714 121° Southeast 450 518 29,400 912 Climbing Minneapolis Center
Sun 04:32:06 PM 43.9800 -91.6225 122° Southeast 453 521 30,300 1,440 Climbing Minneapolis Center
Sun 04:33:08 PM 43.9153 -91.4761 135° Southeast 450 518 32,400 1,350 Climbing Minneapolis Center
Sun 04:34:06 PM 43.8375 -91.3669 134° Southeast 407 468 33,000 610 Climbing Chicago Center
Sun 04:35:06 PM 43.7561 -91.2522 134° Southeast 402 463 33,600 500 Climbing Chicago Center
Sun 04:36:06 PM 43.6747 -91.1378 135° Southeast 407 468 34,000 450 Climbing Chicago Center
Sun 04:37:06 PM 43.5908 -91.0206 135° Southeast 422 486 34,500 400 Climbing Chicago Center
Sun 04:38:06 PM 43.5072 -90.9039 135° Southeast 422 486 34,800 250 Climbing Chicago Center
Sun 04:39:06 PM 43.4231 -90.7875 135° Southeast 422 486 35,000 100 Climbing Chicago Center
Sun 04:40:06 PM 43.3369 -90.6683 136° Southeast 422 486 35,000  Level Chicago Center
Sun 04:41:06 PM 43.2508 -90.5525 135° Southeast 422 486 35,000  Level Chicago Center
Sun 04:42:06 PM 43.1644 -90.4342 135° Southeast 422 486 35,000  Level Chicago Center
Sun 04:43:06 PM 43.0800 -90.3192 134° Southeast 422 486 35,000  Level Chicago Center
Sun 04:44:06 PM 42.9933 -90.1986 136° Southeast 422 486 35,000  Level Chicago Center
Sun 04:45:06 PM 42.9067 -90.0839 135° Southeast 428 493 35,000  Level Chicago Center
Sun 04:46:06 PM 42.8200 -89.9642 157° South 434 499 35,000  Level Chicago Center
Sun 04:48:06 PM 42.5953 -89.8350 169° South 422 486 35,000  Level Chicago Center
Sun 04:49:06 PM 42.4808 -89.8058 169° South 415 478 35,000  Level Chicago Center
Sun 04:50:06 PM 42.3725 -89.7769 170° South 415 478 35,000  Level Chicago Center
Sun 04:51:06 PM 42.2603 -89.7511 168° South 410 472 35,000  Level Chicago Center
Sun 04:52:06 PM 42.1456 -89.7194 173° South 410 472 35,000  Level Chicago Center
Sun 04:53:06 PM 42.0456 -89.7022 171° South 410 472 35,000  Level Chicago Center
Sun 04:54:06 PM 41.9289 -89.6764 162° South 410 472 35,000  Level Chicago Center
Sun 04:55:06 PM 41.8208 -89.6286 158° South 410 472 35,000  Level Chicago Center
Sun 04:56:06 PM 41.7167 -89.5725 158° South 415 478 35,000  Level Chicago Center
Sun 04:57:06 PM 41.6061 -89.5136 119° Southeast 420 483 35,000  Level Chicago Center
Sun 04:58:06 PM 41.5397 -89.3556 123° Southeast 461 531 35,000  Level Chicago Center
Sun 04:59:06 PM 41.4728 -89.2169 129° Southeast 463 533 35,000  Level Chicago Center
Sun 05:00:06 PM 41.3975 -89.0953 127° Southeast 429 494 35,000  Level Chicago Center
Sun 05:01:06 PM 41.3222 -88.9600 127° Southeast 441 507 35,000  Level Chicago Center
Sun 05:02:06 PM 41.2467 -88.8253 127° Southeast 446 513 35,000  Level Chicago Center
Sun 05:03:06 PM 41.1731 -88.6933 127° Southeast 446 513 35,000  Level Chicago Center
Sun 05:04:06 PM 41.0992 -88.5619 127° Southeast 446 513 35,000  Level Chicago Center
Sun 05:05:06 PM 41.0253 -88.4306 128° Southeast 446 513 35,000  Level Chicago Center
Sun 05:06:06 PM 40.9492 -88.3025 126° Southeast 451 519 35,000  Level Chicago Center
Sun 05:07:06 PM 40.8769 -88.1692 128° Southeast 451 519 35,000  Level Chicago Center
Sun 05:08:06 PM 40.8067 -88.0525 128° Southeast 451 519 35,000  Level Chicago Center
Sun 05:09:06 PM 40.7303 -87.9250 137° Southeast 451 519 35,000  Level Chicago Center
Sun 05:10:06 PM 40.6414 -87.8175 140° Southeast 446 513 35,000 100 Level Chicago Center
Sun 05:11:06 PM 40.5481 -87.7133 118° Southeast 436 502 35,200 287 Climbing Chicago Center
Sun 05:13:35 PM 40.4011 -87.3458 114° Southeast 448 516 36,000 230 Climbing Indianapolis Center
Sun 05:14:35 PM 40.3494 -87.1958 113° Southeast 448 516 36,000  Level Indianapolis Center
Sun 05:15:35 PM 40.3056 -87.0631 105° East 448 516 36,000  Level Indianapolis Center
Sun 05:16:35 PM 40.2744 -86.9089 102° East 438 504 36,000  Level Indianapolis Center
Sun 05:17:35 PM 40.2497 -86.7528 105° East 431 496 36,000 -150 Level Indianapolis Center
Sun 05:18:35 PM 40.2183 -86.6017 102° East 431 496 35,700 -400 Descending Indianapolis Center
Sun 05:19:35 PM 40.1931 -86.4458 104° East 436 502 35,200 -350 Descending Indianapolis Center
Sun 05:20:35 PM 40.1594 -86.2758 104° East 436 502 35,000 -100 Descending Indianapolis Center
Sun 05:21:35 PM 40.1297 -86.1172 113° Southeast 436 502 35,000  Level Indianapolis Center
Sun 05:22:35 PM 40.0806 -85.9689 117° Southeast 436 502 35,000  Level Indianapolis Center
Sun 05:23:35 PM 40.0250 -85.8261 116° Southeast 436 502 35,000  Level Indianapolis Center
Sun 05:24:35 PM 39.9714 -85.6808 118° Southeast 442 509 35,000  Level Indianapolis Center
Sun 05:25:35 PM 39.9136 -85.5383 117° Southeast 442 509 35,000  Level Indianapolis Center
Sun 05:26:35 PM 39.8633 -85.4097 116° Southeast 442 509 35,000  Level Indianapolis Center
Sun 05:27:35 PM 39.8114 -85.2733 117° Southeast 436 502 35,000  Level Indianapolis Center
Sun 05:28:35 PM 39.7550 -85.1314 118° Southeast 436 502 35,000  Level Indianapolis Center
Sun 05:29:35 PM 39.6983 -84.9925 118° Southeast 436 502 35,000  Level Indianapolis Center
Sun 05:30:35 PM 39.6375 -84.8458 117° Southeast 430 495 35,000  Level Indianapolis Center
Sun 05:31:35 PM 39.5806 -84.7019 118° Southeast 438 504 35,000  Level Indianapolis Center
Sun 05:32:35 PM 39.5317 -84.5828 117° Southeast 438 504 35,000  Level Indianapolis Center
Sun 05:33:35 PM 39.4764 -84.4447 120° Southeast 432 497 35,000  Level Indianapolis Center
Sun 05:34:35 PM 39.4189 -84.3150 122° Southeast 427 491 35,000  Level Indianapolis Center
Sun 05:35:35 PM 39.3572 -84.1856 120° Southeast 421 484 35,000  Level Indianapolis Center
Sun 05:36:35 PM 39.2972 -84.0533 121° Southeast 426 490 35,000  Level Indianapolis Center
Sun 05:37:35 PM 39.2372 -83.9242 121° Southeast 426 490 35,000  Level Indianapolis Center
Sun 05:38:35 PM 39.1750 -83.7900 121° Southeast 426 490 35,000  Level Indianapolis Center
Sun 05:39:35 PM 39.1128 -83.6586 120° Southeast 426 490 35,000  Level Indianapolis Center
Sun 05:40:35 PM 39.0544 -83.5303 121° Southeast 426 490 35,000  Level Indianapolis Center
Sun 05:41:35 PM 38.9939 -83.3994 121° Southeast 426 490 35,000  Level Indianapolis Center
Sun 05:42:35 PM 38.9269 -83.2581 122° Southeast 426 490 35,000  Level Indianapolis Center
Sun 05:43:35 PM 38.8722 -83.1461 121° Southeast 426 490 35,000  Level Indianapolis Center
Sun 05:44:35 PM 38.8114 -83.0161 121° Southeast 420 483 35,000  Level Indianapolis Center
Sun 05:45:35 PM 38.7500 -82.8833 123° Southeast 425 489 35,000  Level Indianapolis Center
Sun 05:46:35 PM 38.6847 -82.7536 121° Southeast 425 489 35,000  Level Indianapolis Center
Sun 05:47:35 PM 38.6233 -82.6242 121° Southeast 425 489 35,000  Level Indianapolis Center
Sun 05:48:35 PM 38.5617 -82.4919 123° Southeast 425 489 35,000 -200 Level Indianapolis Center
Sun 05:49:35 PM 38.4978 -82.3656 122° Southeast 425 489 34,600 -600 Descending Indianapolis Center
Sun 05:50:35 PM 38.4339 -82.2342 123° Southeast 425 489 33,800 -800 Descending Indianapolis Center
Sun 05:51:35 PM 38.3697 -82.1081 122° Southeast 425 489 33,000 -750 Descending Indianapolis Center
Sun 05:52:35 PM 38.3056 -81.9769 121° Southeast 430 495 32,300 -500 Descending Indianapolis Center
Sun 05:53:35 PM 38.2411 -81.8408 123° Southeast 430 495 32,000 -150 Descending Indianapolis Center
Sun 05:54:35 PM 38.1744 -81.7103 122° Southeast 435 501 32,000  Level Indianapolis Center
Sun 05:55:35 PM 38.1097 -81.5775 122° Southeast 440 506 32,000  Level Indianapolis Center
Sun 05:56:35 PM 38.0447 -81.4447 122° Southeast 440 506 32,000 -300 Level Indianapolis Center
Sun 05:57:35 PM 37.9797 -81.3147 123° Southeast 440 506 31,400 -657 Descending Indianapolis Center
Sun 06:00:05 PM 37.8139 -80.9939 122° Southeast 434 499 29,700 -686 Descending Washington Center
Sun 06:01:05 PM 37.7411 -80.8469 123° Southeast 465 535 29,000 -347 Descending Washington Center
Sun 06:02:06 PM 37.6717 -80.7133 123° Southeast 449 517 29,000  Level Washington Center
Sun 06:03:04 PM 37.6044 -80.5806 123° Southeast 449 517 29,000 -203 Level Washington Center
Sun 06:04:04 PM 37.5425 -80.4611 123° Southeast 454 522 28,600 -694 Descending Washington Center
Sun 06:05:05 PM 37.4747 -80.3311 123° Southeast 454 522 27,600 -992 Descending Washington Center
Sun 06:06:05 PM 37.4086 -80.2042 123° Southeast 454 522 26,600 -1,041 Descending Washington Center
Sun 06:07:06 PM 37.3367 -80.0667 129° Southeast 444 511 25,500 -1,041 Descending Washington Center
Sun 06:08:06 PM 37.2639 -79.9525 128° Southeast 434 499 24,500 -763 Descending Washington Center
Sun 06:09:04 PM 37.1928 -79.8392 128° Southeast 423 487 24,000 -655 Descending Washington Center
Sun 06:10:05 PM 37.1297 -79.7367 128° Southeast 413 475 23,200 -885 Descending Washington Center
Sun 06:11:06 PM 37.0603 -79.6261 127° Southeast 408 470 22,200 -942 Descending Washington Center
Sun 06:12:06 PM 36.9931 -79.5158 128° Southeast 408 470 21,300 -1,068 Descending Washington Center
Sun 06:13:04 PM 36.9217 -79.4006 129° Southeast 408 470 20,100 -1,109 Descending Washington Center
Sun 06:14:05 PM 36.8542 -79.2961 128° Southeast 397 457 19,100 -545 Descending Washington Center
Sun 06:15:05 PM 36.7864 -79.1892 129° Southeast 392 451 19,000 -50 Descending Washington Center
Sun 06:16:06 PM 36.7206 -79.0875 141° Southeast 382 440 19,000 -850 Level Washington Center
Sun 06:16:58 PM 36.6475 -79.0144 165° South 400 460 17,400 -2,118 Descending Washington Center
Sun 06:18:05 PM 36.5319 -78.9756 167° South 381 438 14,800 -2,388 Descending Washington Center
Sun 06:18:41 PM 36.4697 -78.9575 167° South 372 428 13,300 -2,154 Descending Washington Center
Sun 06:19:23 PM 36.3972 -78.9364 167° South 369 425 12,000 -918 Descending Washington Center
Sun 06:20:06 PM 36.3353 -78.9181 166° South 369 425 12,000 -291 Level Washington Center
Sun 06:21:06 PM 36.2358 -78.8883 167° South 369 425 11,500 -610 Descending Washington Center
Sun 06:22:04 PM 36.1489 -78.8639 168° South 346 398 10,800 -1,322 Descending Washington Center
Sun 06:23:04 PM 36.0681 -78.8425 167° South 314 361 8,900 -1,339 Descending Washington Center
Sun 06:24:05 PM 35.9914 -78.8214 197° South 292 336 8,100 -446 Descending Washington Center
Sun 06:25:05 PM 35.9178 -78.8492 234° Southwest 274 315 8,000 -400 Descending Washington Center
Sun 06:26:05 PM 35.8717 -78.9269 229° Southwest 269 310 7,300 -1,644 Descending Washington Center
Sun 06:27:31 PM 35.8022 -79.0239 116° Southeast 290 334 4,000 -2,096 Descending Washington Center
Sun 06:28:31 PM 35.7750 -78.9561 60° Northeast 248 285 2,200 -945 Descending Washington Center
Sun 06:29:38 PM 35.8061 -78.8883 48° Northeast 194 223 2,000 -344 Descending Washington Center
Sun 06:30:33 PM 35.8319 -78.8533 43° Northeast 159 183 1,500 -621 Descending Washington Center
Sun 06:31:34 PM 35.8600 -78.8214 43° Northeast 136 157 800 -689 Descending Washington Center

Login

Don't have an account? Register now (free) for customized features, flight alerts, and more!